sensor_id;sensor_type;location;lat;lon;timestamp;P1;durP1;ratioP1;P2;durP2;ratioP2
75837;SDS011;64480;52.040;113.502;2023-04-06T00:00:32;2.17;;;0.65;;
75837;SDS011;64480;52.040;113.502;2023-04-06T00:03:35;7.50;;;0.82;;
75837;SDS011;64480;52.040;113.502;2023-04-06T00:06:40;10.40;;;2.20;;
75837;SDS011;64480;52.040;113.502;2023-04-06T00:09:45;3.45;;;0.90;;
75837;SDS011;64480;52.040;113.502;2023-04-06T00:12:48;13.23;;;1.20;;
75837;SDS011;64480;52.040;113.502;2023-04-06T00:15:52;7.93;;;0.85;;
75837;SDS011;64480;52.040;113.502;2023-04-06T00:18:56;1.88;;;0.50;;
75837;SDS011;64480;52.040;113.502;2023-04-06T00:21:59;2.55;;;0.30;;
75837;SDS011;64480;52.040;113.502;2023-04-06T00:25:05;5.05;;;0.93;;
75837;SDS011;64480;52.040;113.502;2023-04-06T00:28:11;3.60;;;1.20;;
75837;SDS011;64480;52.040;113.502;2023-04-06T00:31:15;10.48;;;1.08;;
75837;SDS011;64480;52.040;113.502;2023-04-06T00:34:20;12.52;;;1.45;;
75837;SDS011;64480;52.040;113.502;2023-04-06T00:37:24;3.88;;;0.50;;
75837;SDS011;64480;52.040;113.502;2023-04-06T00:40:27;3.60;;;0.90;;
75837;SDS011;64480;52.040;113.502;2023-04-06T00:43:31;4.95;;;1.05;;
75837;SDS011;64480;52.040;113.502;2023-04-06T00:46:35;2.50;;;0.38;;
75837;SDS011;64480;52.040;113.502;2023-04-06T00:49:39;1.58;;;0.70;;
75837;SDS011;64480;52.040;113.502;2023-04-06T00:52:45;1.33;;;0.55;;
75837;SDS011;64480;52.040;113.502;2023-04-06T00:55:50;1.55;;;0.43;;
75837;SDS011;64480;52.040;113.502;2023-04-06T00:58:55;2.30;;;0.63;;
75837;SDS011;64480;52.040;113.502;2023-04-06T01:01:59;2.33;;;0.73;;
75837;SDS011;64480;52.040;113.502;2023-04-06T01:05:12;10.27;;;0.70;;
75837;SDS011;64480;52.040;113.502;2023-04-06T01:08:24;3.40;;;0.45;;
75837;SDS011;64480;52.040;113.502;2023-04-06T01:11:38;2.75;;;0.98;;
75837;SDS011;64480;52.040;113.502;2023-04-06T01:14:45;0.95;;;0.40;;
75837;SDS011;64480;52.040;113.502;2023-04-06T01:17:50;4.30;;;0.82;;
75837;SDS011;64480;52.040;113.502;2023-04-06T01:20:53;1.50;;;0.50;;
75837;SDS011;64480;52.040;113.502;2023-04-06T01:23:59;9.77;;;1.10;;
75837;SDS011;64480;52.040;113.502;2023-04-06T01:27:12;1.38;;;0.65;;
75837;SDS011;64480;52.040;113.502;2023-04-06T01:30:34;0.50;;;0.17;;
75837;SDS011;64480;52.040;113.502;2023-04-06T01:33:48;6.82;;;1.20;;
75837;SDS011;64480;52.040;113.502;2023-04-06T01:36:55;3.63;;;0.52;;
75837;SDS011;64480;52.040;113.502;2023-04-06T01:40:04;1.38;;;0.32;;
75837;SDS011;64480;52.040;113.502;2023-04-06T01:43:17;3.00;;;0.35;;
75837;SDS011;64480;52.040;113.502;2023-04-06T01:46:40;1.25;;;0.43;;
75837;SDS011;64480;52.040;113.502;2023-04-06T01:49:48;9.20;;;0.73;;
75837;SDS011;64480;52.040;113.502;2023-04-06T01:52:52;1.27;;;0.63;;
75837;SDS011;64480;52.040;113.502;2023-04-06T01:55:57;3.00;;;0.80;;
75837;SDS011;64480;52.040;113.502;2023-04-06T01:59:06;0.77;;;0.40;;
75837;SDS011;64480;52.040;113.502;2023-04-06T02:02:25;0.85;;;0.45;;
75837;SDS011;64480;52.040;113.502;2023-04-06T02:05:36;3.03;;;0.25;;
75837;SDS011;64480;52.040;113.502;2023-04-06T02:09:12;0.73;;;0.32;;
75837;SDS011;64480;52.040;113.502;2023-04-06T02:12:19;9.65;;;1.00;;
75837;SDS011;64480;52.040;113.502;2023-04-06T02:15:38;1.40;;;0.38;;
75837;SDS011;64480;52.040;113.502;2023-04-06T02:18:46;2.00;;;0.93;;
75837;SDS011;64480;52.040;113.502;2023-04-06T02:21:53;2.95;;;1.02;;
75837;SDS011;64480;52.040;113.502;2023-04-06T02:28:52;1.50;;;0.45;;
75837;SDS011;64480;52.040;113.502;2023-04-06T02:38:50;3.30;;;0.40;;
75837;SDS011;64480;52.040;113.502;2023-04-06T02:41:57;5.75;;;1.08;;
75837;SDS011;64480;52.040;113.502;2023-04-06T02:45:04;5.60;;;1.27;;
75837;SDS011;64480;52.040;113.502;2023-04-06T02:48:16;1.45;;;0.55;;
75837;SDS011;64480;52.040;113.502;2023-04-06T02:51:20;3.17;;;0.73;;
75837;SDS011;64480;52.040;113.502;2023-04-06T02:58:04;1.45;;;0.52;;
75837;SDS011;64480;52.040;113.502;2023-04-06T03:01:30;1.08;;;0.40;;
75837;SDS011;64480;52.040;113.502;2023-04-06T03:04:43;0.43;;;0.28;;
75837;SDS011;64480;52.040;113.502;2023-04-06T03:08:08;6.43;;;0.88;;
75837;SDS011;64480;52.040;113.502;2023-04-06T03:11:24;0.57;;;0.20;;
75837;SDS011;64480;52.040;113.502;2023-04-06T03:14:29;1.92;;;0.47;;
75837;SDS011;64480;52.040;113.502;2023-04-06T03:21:16;1.35;;;0.52;;
75837;SDS011;64480;52.040;113.502;2023-04-06T03:24:27;0.57;;;0.30;;
75837;SDS011;64480;52.040;113.502;2023-04-06T03:27:30;1.55;;;0.50;;
75837;SDS011;64480;52.040;113.502;2023-04-06T03:30:36;1.35;;;0.55;;
75837;SDS011;64480;52.040;113.502;2023-04-06T03:33:46;0.80;;;0.45;;
75837;SDS011;64480;52.040;113.502;2023-04-06T03:37:00;7.60;;;0.63;;
75837;SDS011;64480;52.040;113.502;2023-04-06T03:47:35;0.73;;;0.38;;
75837;SDS011;64480;52.040;113.502;2023-04-06T03:54:20;2.33;;;1.10;;
75837;SDS011;64480;52.040;113.502;2023-04-06T03:57:25;1.35;;;0.60;;
75837;SDS011;64480;52.040;113.502;2023-04-06T04:00:28;1.92;;;0.50;;
75837;SDS011;64480;52.040;113.502;2023-04-06T04:03:32;0.80;;;0.60;;
75837;SDS011;64480;52.040;113.502;2023-04-06T04:06:41;2.40;;;0.25;;
75837;SDS011;64480;52.040;113.502;2023-04-06T04:09:45;0.20;;;0.10;;
75837;SDS011;64480;52.040;113.502;2023-04-06T04:12:50;1.25;;;0.35;;
75837;SDS011;64480;52.040;113.502;2023-04-06T04:15:58;0.50;;;0.30;;
75837;SDS011;64480;52.040;113.502;2023-04-06T04:19:05;7.43;;;0.70;;
75837;SDS011;64480;52.040;113.502;2023-04-06T04:25:46;3.03;;;0.60;;
75837;SDS011;64480;52.040;113.502;2023-04-06T04:28:53;0.85;;;0.30;;
75837;SDS011;64480;52.040;113.502;2023-04-06T04:32:01;8.85;;;0.93;;
75837;SDS011;64480;52.040;113.502;2023-04-06T04:39:16;1.98;;;0.85;;
75837;SDS011;64480;52.040;113.502;2023-04-06T04:42:30;3.75;;;1.13;;
75837;SDS011;64480;52.040;113.502;2023-04-06T04:45:38;9.98;;;1.20;;
75837;SDS011;64480;52.040;113.502;2023-04-06T04:48:59;1.30;;;0.60;;
75837;SDS011;64480;52.040;113.502;2023-04-06T04:52:07;1.55;;;0.40;;
75837;SDS011;64480;52.040;113.502;2023-04-06T04:58:56;5.65;;;0.40;;
75837;SDS011;64480;52.040;113.502;2023-04-06T05:02:07;1.65;;;0.65;;
75837;SDS011;64480;52.040;113.502;2023-04-06T05:05:23;0.70;;;0.30;;
75837;SDS011;64480;52.040;113.502;2023-04-06T05:08:31;8.05;;;0.95;;
75837;SDS011;64480;52.040;113.502;2023-04-06T05:11:36;5.88;;;0.32;;
75837;SDS011;64480;52.040;113.502;2023-04-06T05:18:08;0.63;;;0.30;;
75837;SDS011;64480;52.040;113.502;2023-04-06T05:21:18;1.33;;;0.50;;
75837;SDS011;64480;52.040;113.502;2023-04-06T05:28:05;4.15;;;0.38;;
75837;SDS011;64480;52.040;113.502;2023-04-06T05:31:16;1.13;;;0.50;;
75837;SDS011;64480;52.040;113.502;2023-04-06T05:34:32;2.38;;;0.40;;
75837;SDS011;64480;52.040;113.502;2023-04-06T05:37:42;3.60;;;0.60;;
75837;SDS011;64480;52.040;113.502;2023-04-06T05:40:57;4.78;;;0.73;;
75837;SDS011;64480;52.040;113.502;2023-04-06T05:44:05;3.28;;;0.95;;
75837;SDS011;64480;52.040;113.502;2023-04-06T05:50:54;1.13;;;0.30;;
75837;SDS011;64480;52.040;113.502;2023-04-06T05:54:09;2.78;;;0.63;;
75837;SDS011;64480;52.040;113.502;2023-04-06T05:57:14;2.85;;;0.57;;
75837;SDS011;64480;52.040;113.502;2023-04-06T06:00:24;3.42;;;1.10;;
75837;SDS011;64480;52.040;113.502;2023-04-06T06:03:36;4.00;;;0.52;;
75837;SDS011;64480;52.040;113.502;2023-04-06T06:10:35;1.65;;;0.50;;
75837;SDS011;64480;52.040;113.502;2023-04-06T06:13:45;1.23;;;0.40;;
75837;SDS011;64480;52.040;113.502;2023-04-06T06:16:49;1.05;;;0.17;;
75837;SDS011;64480;52.040;113.502;2023-04-06T06:19:54;1.42;;;0.20;;
75837;SDS011;64480;52.040;113.502;2023-04-06T06:22:58;2.42;;;0.50;;
75837;SDS011;64480;52.040;113.502;2023-04-06T06:26:05;2.40;;;0.35;;
75837;SDS011;64480;52.040;113.502;2023-04-06T06:29:10;4.78;;;0.73;;
75837;SDS011;64480;52.040;113.502;2023-04-06T06:32:14;10.10;;;2.15;;
75837;SDS011;64480;52.040;113.502;2023-04-06T06:35:24;4.88;;;0.50;;
75837;SDS011;64480;52.040;113.502;2023-04-06T06:38:28;3.53;;;0.70;;
75837;SDS011;64480;52.040;113.502;2023-04-06T06:41:32;1.75;;;0.50;;
75837;SDS011;64480;52.040;113.502;2023-04-06T06:44:36;3.78;;;1.00;;
75837;SDS011;64480;52.040;113.502;2023-04-06T06:47:43;1.35;;;0.43;;
75837;SDS011;64480;52.040;113.502;2023-04-06T06:50:47;2.22;;;0.70;;
75837;SDS011;64480;52.040;113.502;2023-04-06T06:53:51;1.88;;;0.60;;
75837;SDS011;64480;52.040;113.502;2023-04-06T06:57:03;1.80;;;0.52;;
75837;SDS011;64480;52.040;113.502;2023-04-06T07:00:25;0.93;;;0.30;;
75837;SDS011;64480;52.040;113.502;2023-04-06T07:03:29;4.47;;;1.25;;
75837;SDS011;64480;52.040;113.502;2023-04-06T07:06:36;2.63;;;0.70;;
75837;SDS011;64480;52.040;113.502;2023-04-06T07:09:42;2.70;;;0.63;;
75837;SDS011;64480;52.040;113.502;2023-04-06T07:12:45;62.67;;;1.80;;
75837;SDS011;64480;52.040;113.502;2023-04-06T07:15:49;1.33;;;0.38;;
75837;SDS011;64480;52.040;113.502;2023-04-06T07:18:53;5.20;;;1.25;;
75837;SDS011;64480;52.040;113.502;2023-04-06T07:21:56;2.70;;;1.17;;
75837;SDS011;64480;52.040;113.502;2023-04-06T07:25:00;1.00;;;0.30;;
75837;SDS011;64480;52.040;113.502;2023-04-06T07:28:06;1.98;;;0.65;;
75837;SDS011;64480;52.040;113.502;2023-04-06T07:31:14;1.15;;;0.45;;
75837;SDS011;64480;52.040;113.502;2023-04-06T07:34:21;2.97;;;0.55;;
75837;SDS011;64480;52.040;113.502;2023-04-06T07:37:25;7.60;;;1.17;;
75837;SDS011;64480;52.040;113.502;2023-04-06T07:40:31;1.58;;;0.43;;
75837;SDS011;64480;52.040;113.502;2023-04-06T07:43:35;1.08;;;0.43;;
75837;SDS011;64480;52.040;113.502;2023-04-06T07:46:40;1.40;;;0.45;;
75837;SDS011;64480;52.040;113.502;2023-04-06T07:49:44;1.15;;;0.40;;
75837;SDS011;64480;52.040;113.502;2023-04-06T07:52:48;3.30;;;0.63;;
75837;SDS011;64480;52.040;113.502;2023-04-06T07:55:53;2.55;;;0.40;;
75837;SDS011;64480;52.040;113.502;2023-04-06T07:59:03;2.50;;;0.93;;
75837;SDS011;64480;52.040;113.502;2023-04-06T08:02:06;2.60;;;0.47;;
75837;SDS011;64480;52.040;113.502;2023-04-06T08:05:12;4.30;;;1.90;;
75837;SDS011;64480;52.040;113.502;2023-04-06T08:08:15;1.10;;;0.55;;
75837;SDS011;64480;52.040;113.502;2023-04-06T08:11:19;2.90;;;0.70;;
75837;SDS011;64480;52.040;113.502;2023-04-06T08:14:25;6.03;;;1.00;;
75837;SDS011;64480;52.040;113.502;2023-04-06T08:17:29;2.42;;;0.60;;
75837;SDS011;64480;52.040;113.502;2023-04-06T08:20:34;3.85;;;1.20;;
75837;SDS011;64480;52.040;113.502;2023-04-06T08:26:45;4.80;;;0.68;;
75837;SDS011;64480;52.040;113.502;2023-04-06T08:29:49;2.80;;;0.80;;
75837;SDS011;64480;52.040;113.502;2023-04-06T08:32:53;7.60;;;1.23;;
75837;SDS011;64480;52.040;113.502;2023-04-06T08:35:57;3.47;;;0.80;;
75837;SDS011;64480;52.040;113.502;2023-04-06T08:39:00;3.30;;;0.77;;
75837;SDS011;64480;52.040;113.502;2023-04-06T08:42:04;6.45;;;0.95;;
75837;SDS011;64480;52.040;113.502;2023-04-06T08:45:18;0.50;;;0.30;;
75837;SDS011;64480;52.040;113.502;2023-04-06T08:48:23;8.15;;;1.48;;
75837;SDS011;64480;52.040;113.502;2023-04-06T08:51:30;1.65;;;0.63;;
75837;SDS011;64480;52.040;113.502;2023-04-06T08:54:34;2.20;;;0.52;;
75837;SDS011;64480;52.040;113.502;2023-04-06T08:57:37;1.63;;;0.93;;
75837;SDS011;64480;52.040;113.502;2023-04-06T09:00:41;10.80;;;0.95;;
75837;SDS011;64480;52.040;113.502;2023-04-06T09:03:45;5.70;;;0.95;;
75837;SDS011;64480;52.040;113.502;2023-04-06T09:06:51;7.22;;;0.90;;
75837;SDS011;64480;52.040;113.502;2023-04-06T09:10:01;2.25;;;0.60;;
75837;SDS011;64480;52.040;113.502;2023-04-06T09:13:10;29.85;;;2.97;;
75837;SDS011;64480;52.040;113.502;2023-04-06T09:16:14;6.55;;;1.80;;
75837;SDS011;64480;52.040;113.502;2023-04-06T09:19:18;3.08;;;1.00;;
75837;SDS011;64480;52.040;113.502;2023-04-06T09:22:22;3.47;;;1.10;;
75837;SDS011;64480;52.040;113.502;2023-04-06T09:25:28;1.65;;;0.55;;
75837;SDS011;64480;52.040;113.502;2023-04-06T09:28:49;2.15;;;1.50;;
75837;SDS011;64480;52.040;113.502;2023-04-06T09:32:03;41.45;;;4.78;;
75837;SDS011;64480;52.040;113.502;2023-04-06T09:35:08;5.97;;;1.20;;
75837;SDS011;64480;52.040;113.502;2023-04-06T09:38:12;3.67;;;1.00;;
75837;SDS011;64480;52.040;113.502;2023-04-06T09:41:21;3.65;;;1.50;;
75837;SDS011;64480;52.040;113.502;2023-04-06T09:44:42;3.67;;;0.98;;
75837;SDS011;64480;52.040;113.502;2023-04-06T09:47:46;2.72;;;1.15;;
75837;SDS011;64480;52.040;113.502;2023-04-06T09:50:53;9.93;;;1.30;;
75837;SDS011;64480;52.040;113.502;2023-04-06T09:54:05;10.18;;;1.75;;
75837;SDS011;64480;52.040;113.502;2023-04-06T10:00:34;3.67;;;0.88;;
75837;SDS011;64480;52.040;113.502;2023-04-06T10:07:21;5.65;;;1.50;;
75837;SDS011;64480;52.040;113.502;2023-04-06T10:10:28;5.57;;;3.17;;
75837;SDS011;64480;52.040;113.502;2023-04-06T10:13:32;2.65;;;0.88;;
75837;SDS011;64480;52.040;113.502;2023-04-06T10:16:36;7.18;;;1.85;;
75837;SDS011;64480;52.040;113.502;2023-04-06T10:22:59;8.13;;;1.48;;
75837;SDS011;64480;52.040;113.502;2023-04-06T10:26:14;7.57;;;1.85;;
75837;SDS011;64480;52.040;113.502;2023-04-06T10:29:22;8.02;;;2.10;;
75837;SDS011;64480;52.040;113.502;2023-04-06T10:32:36;11.45;;;2.70;;
75837;SDS011;64480;52.040;113.502;2023-04-06T10:35:48;7.03;;;1.75;;
75837;SDS011;64480;52.040;113.502;2023-04-06T10:39:02;8.98;;;1.33;;
75837;SDS011;64480;52.040;113.502;2023-04-06T10:42:07;9.98;;;1.60;;
75837;SDS011;64480;52.040;113.502;2023-04-06T10:45:22;10.18;;;1.55;;
75837;SDS011;64480;52.040;113.502;2023-04-06T10:48:37;9.70;;;2.00;;
75837;SDS011;64480;52.040;113.502;2023-04-06T10:51:43;13.93;;;2.25;;
75837;SDS011;64480;52.040;113.502;2023-04-06T10:54:46;6.95;;;1.73;;
75837;SDS011;64480;52.040;113.502;2023-04-06T10:57:51;7.03;;;2.35;;
75837;SDS011;64480;52.040;113.502;2023-04-06T11:00:55;9.60;;;3.15;;
75837;SDS011;64480;52.040;113.502;2023-04-06T11:03:59;23.77;;;3.42;;
75837;SDS011;64480;52.040;113.502;2023-04-06T11:07:12;26.92;;;5.15;;
75837;SDS011;64480;52.040;113.502;2023-04-06T11:10:29;11.57;;;3.95;;
75837;SDS011;64480;52.040;113.502;2023-04-06T11:13:40;13.80;;;3.88;;
75837;SDS011;64480;52.040;113.502;2023-04-06T11:16:46;7.47;;;3.22;;
75837;SDS011;64480;52.040;113.502;2023-04-06T11:19:59;10.25;;;3.38;;
75837;SDS011;64480;52.040;113.502;2023-04-06T11:23:03;19.58;;;3.40;;
75837;SDS011;64480;52.040;113.502;2023-04-06T11:29:30;14.75;;;3.85;;
75837;SDS011;64480;52.040;113.502;2023-04-06T11:36:28;8.55;;;2.53;;
75837;SDS011;64480;52.040;113.502;2023-04-06T11:39:37;9.75;;;3.25;;
75837;SDS011;64480;52.040;113.502;2023-04-06T11:42:51;12.93;;;3.60;;
75837;SDS011;64480;52.040;113.502;2023-04-06T11:46:00;25.85;;;6.78;;
75837;SDS011;64480;52.040;113.502;2023-04-06T11:49:07;18.60;;;6.47;;
75837;SDS011;64480;52.040;113.502;2023-04-06T11:52:15;21.98;;;8.45;;
75837;SDS011;64480;52.040;113.502;2023-04-06T11:55:22;29.40;;;8.57;;
75837;SDS011;64480;52.040;113.502;2023-04-06T11:58:26;22.75;;;7.45;;
75837;SDS011;64480;52.040;113.502;2023-04-06T12:01:29;22.83;;;8.35;;
75837;SDS011;64480;52.040;113.502;2023-04-06T12:04:39;27.08;;;7.55;;
75837;SDS011;64480;52.040;113.502;2023-04-06T12:07:43;30.45;;;7.93;;
75837;SDS011;64480;52.040;113.502;2023-04-06T12:10:50;20.52;;;6.90;;
75837;SDS011;64480;52.040;113.502;2023-04-06T12:13:53;22.20;;;6.32;;
75837;SDS011;64480;52.040;113.502;2023-04-06T12:16:57;28.77;;;6.82;;
75837;SDS011;64480;52.040;113.502;2023-04-06T12:20:07;23.50;;;7.25;;
75837;SDS011;64480;52.040;113.502;2023-04-06T12:23:29;24.98;;;8.23;;
75837;SDS011;64480;52.040;113.502;2023-04-06T12:26:35;32.53;;;9.07;;
75837;SDS011;64480;52.040;113.502;2023-04-06T12:29:54;37.30;;;10.50;;
75837;SDS011;64480;52.040;113.502;2023-04-06T12:32:58;40.55;;;12.68;;
75837;SDS011;64480;52.040;113.502;2023-04-06T12:36:12;60.10;;;17.88;;
75837;SDS011;64480;52.040;113.502;2023-04-06T12:39:25;58.05;;;19.33;;
75837;SDS011;64480;52.040;113.502;2023-04-06T12:42:33;45.38;;;16.90;;
75837;SDS011;64480;52.040;113.502;2023-04-06T12:45:39;62.80;;;19.92;;
75837;SDS011;64480;52.040;113.502;2023-04-06T12:52:33;85.40;;;25.83;;
75837;SDS011;64480;52.040;113.502;2023-04-06T12:55:38;86.40;;;24.17;;
75837;SDS011;64480;52.040;113.502;2023-04-06T12:58:41;83.65;;;27.40;;
75837;SDS011;64480;52.040;113.502;2023-04-06T13:01:55;90.25;;;27.10;;
75837;SDS011;64480;52.040;113.502;2023-04-06T13:05:07;69.78;;;22.48;;
75837;SDS011;64480;52.040;113.502;2023-04-06T13:08:11;62.15;;;20.52;;
75837;SDS011;64480;52.040;113.502;2023-04-06T13:11:15;61.88;;;18.48;;
75837;SDS011;64480;52.040;113.502;2023-04-06T13:14:19;51.85;;;15.77;;
75837;SDS011;64480;52.040;113.502;2023-04-06T13:17:23;66.72;;;19.23;;
75837;SDS011;64480;52.040;113.502;2023-04-06T13:20:27;40.85;;;12.55;;
75837;SDS011;64480;52.040;113.502;2023-04-06T13:23:30;38.03;;;11.43;;
75837;SDS011;64480;52.040;113.502;2023-04-06T13:26:33;40.53;;;12.27;;
75837;SDS011;64480;52.040;113.502;2023-04-06T13:29:37;34.05;;;10.15;;
75837;SDS011;64480;52.040;113.502;2023-04-06T13:32:41;21.13;;;7.10;;
75837;SDS011;64480;52.040;113.502;2023-04-06T13:35:45;28.95;;;8.15;;
75837;SDS011;64480;52.040;113.502;2023-04-06T13:38:49;56.53;;;10.50;;
75837;SDS011;64480;52.040;113.502;2023-04-06T13:41:55;23.90;;;8.70;;
75837;SDS011;64480;52.040;113.502;2023-04-06T13:45:04;40.70;;;9.90;;
75837;SDS011;64480;52.040;113.502;2023-04-06T13:48:08;30.83;;;9.00;;
75837;SDS011;64480;52.040;113.502;2023-04-06T13:51:12;26.05;;;7.85;;
75837;SDS011;64480;52.040;113.502;2023-04-06T13:54:17;32.17;;;9.10;;
75837;SDS011;64480;52.040;113.502;2023-04-06T13:57:20;20.60;;;6.63;;
75837;SDS011;64480;52.040;113.502;2023-04-06T14:00:24;20.25;;;6.22;;
75837;SDS011;64480;52.040;113.502;2023-04-06T14:03:27;40.83;;;7.03;;
75837;SDS011;64480;52.040;113.502;2023-04-06T14:06:31;27.33;;;7.82;;
75837;SDS011;64480;52.040;113.502;2023-04-06T14:09:35;22.95;;;7.00;;
75837;SDS011;64480;52.040;113.502;2023-04-06T14:12:38;25.40;;;7.72;;
75837;SDS011;64480;52.040;113.502;2023-04-06T14:15:46;28.55;;;6.72;;
75837;SDS011;64480;52.040;113.502;2023-04-06T14:18:50;13.63;;;5.53;;
75837;SDS011;64480;52.040;113.502;2023-04-06T14:21:54;21.30;;;7.25;;
75837;SDS011;64480;52.040;113.502;2023-04-06T14:24:58;25.42;;;7.28;;
75837;SDS011;64480;52.040;113.502;2023-04-06T14:28:02;21.27;;;6.65;;
75837;SDS011;64480;52.040;113.502;2023-04-06T14:31:12;23.35;;;7.03;;
75837;SDS011;64480;52.040;113.502;2023-04-06T14:34:17;23.90;;;7.18;;
75837;SDS011;64480;52.040;113.502;2023-04-06T14:37:21;23.33;;;7.72;;
75837;SDS011;64480;52.040;113.502;2023-04-06T14:40:24;27.35;;;7.18;;
75837;SDS011;64480;52.040;113.502;2023-04-06T14:43:28;32.75;;;10.63;;
75837;SDS011;64480;52.040;113.502;2023-04-06T14:46:32;36.38;;;11.55;;
75837;SDS011;64480;52.040;113.502;2023-04-06T14:49:35;34.90;;;8.95;;
75837;SDS011;64480;52.040;113.502;2023-04-06T14:52:39;38.95;;;10.85;;
75837;SDS011;64480;52.040;113.502;2023-04-06T14:55:42;50.05;;;11.77;;
75837;SDS011;64480;52.040;113.502;2023-04-06T14:58:46;42.80;;;10.95;;
75837;SDS011;64480;52.040;113.502;2023-04-06T15:01:49;35.47;;;11.40;;
75837;SDS011;64480;52.040;113.502;2023-04-06T15:04:53;20.92;;;7.63;;
75837;SDS011;64480;52.040;113.502;2023-04-06T15:07:57;27.73;;;8.98;;
75837;SDS011;64480;52.040;113.502;2023-04-06T15:11:01;28.45;;;9.18;;
75837;SDS011;64480;52.040;113.502;2023-04-06T15:14:05;31.00;;;8.10;;
75837;SDS011;64480;52.040;113.502;2023-04-06T15:17:08;24.83;;;9.50;;
75837;SDS011;64480;52.040;113.502;2023-04-06T15:20:12;28.35;;;8.40;;
75837;SDS011;64480;52.040;113.502;2023-04-06T15:23:15;38.50;;;10.30;;
75837;SDS011;64480;52.040;113.502;2023-04-06T15:26:19;27.75;;;9.93;;
75837;SDS011;64480;52.040;113.502;2023-04-06T15:29:23;24.30;;;8.32;;
75837;SDS011;64480;52.040;113.502;2023-04-06T15:32:27;33.47;;;9.82;;
75837;SDS011;64480;52.040;113.502;2023-04-06T15:35:31;31.35;;;9.98;;
75837;SDS011;64480;52.040;113.502;2023-04-06T15:38:42;37.58;;;11.18;;
75837;SDS011;64480;52.040;113.502;2023-04-06T15:41:45;22.88;;;7.00;;
75837;SDS011;64480;52.040;113.502;2023-04-06T15:44:49;20.95;;;5.55;;
75837;SDS011;64480;52.040;113.502;2023-04-06T15:47:53;10.50;;;3.72;;
75837;SDS011;64480;52.040;113.502;2023-04-06T15:50:57;16.92;;;3.60;;
75837;SDS011;64480;52.040;113.502;2023-04-06T15:54:00;20.48;;;4.45;;
75837;SDS011;64480;52.040;113.502;2023-04-06T15:57:04;35.55;;;6.47;;
75837;SDS011;64480;52.040;113.502;2023-04-06T16:00:08;14.80;;;4.47;;
75837;SDS011;64480;52.040;113.502;2023-04-06T16:03:12;15.93;;;4.82;;
75837;SDS011;64480;52.040;113.502;2023-04-06T16:06:16;13.02;;;4.35;;
75837;SDS011;64480;52.040;113.502;2023-04-06T16:09:19;12.98;;;4.32;;
75837;SDS011;64480;52.040;113.502;2023-04-06T16:12:23;15.45;;;5.05;;
75837;SDS011;64480;52.040;113.502;2023-04-06T16:15:30;21.58;;;5.45;;
75837;SDS011;64480;52.040;113.502;2023-04-06T16:18:33;25.33;;;7.57;;
75837;SDS011;64480;52.040;113.502;2023-04-06T16:21:37;25.70;;;7.05;;
75837;SDS011;64480;52.040;113.502;2023-04-06T16:24:40;26.02;;;8.43;;
75837;SDS011;64480;52.040;113.502;2023-04-06T16:27:44;28.05;;;8.07;;
75837;SDS011;64480;52.040;113.502;2023-04-06T16:30:47;22.92;;;7.18;;
75837;SDS011;64480;52.040;113.502;2023-04-06T16:33:51;19.02;;;6.57;;
75837;SDS011;64480;52.040;113.502;2023-04-06T16:36:56;31.88;;;6.88;;
75837;SDS011;64480;52.040;113.502;2023-04-06T16:39:59;27.10;;;8.10;;
75837;SDS011;64480;52.040;113.502;2023-04-06T16:43:03;24.83;;;8.38;;
75837;SDS011;64480;52.040;113.502;2023-04-06T16:46:06;30.23;;;8.32;;
75837;SDS011;64480;52.040;113.502;2023-04-06T16:49:10;38.60;;;10.02;;
75837;SDS011;64480;52.040;113.502;2023-04-06T16:52:13;43.50;;;12.35;;
75837;SDS011;64480;52.040;113.502;2023-04-06T16:55:16;30.88;;;9.85;;
75837;SDS011;64480;52.040;113.502;2023-04-06T16:58:20;27.88;;;8.27;;
75837;SDS011;64480;52.040;113.502;2023-04-06T17:01:24;19.50;;;6.68;;
75837;SDS011;64480;52.040;113.502;2023-04-06T17:04:29;23.45;;;5.57;;
75837;SDS011;64480;52.040;113.502;2023-04-06T17:07:32;43.53;;;9.48;;
75837;SDS011;64480;52.040;113.502;2023-04-06T17:10:37;21.20;;;6.22;;
75837;SDS011;64480;52.040;113.502;2023-04-06T17:13:48;14.32;;;4.45;;
75837;SDS011;64480;52.040;113.502;2023-04-06T17:16:52;13.18;;;4.30;;
75837;SDS011;64480;52.040;113.502;2023-04-06T17:19:55;17.15;;;4.75;;
75837;SDS011;64480;52.040;113.502;2023-04-06T17:22:59;18.52;;;5.38;;
75837;SDS011;64480;52.040;113.502;2023-04-06T17:26:02;23.33;;;7.00;;
75837;SDS011;64480;52.040;113.502;2023-04-06T17:29:08;15.73;;;4.82;;
75837;SDS011;64480;52.040;113.502;2023-04-06T17:32:11;17.63;;;4.65;;
75837;SDS011;64480;52.040;113.502;2023-04-06T17:35:15;17.90;;;5.13;;
75837;SDS011;64480;52.040;113.502;2023-04-06T17:38:18;20.63;;;5.20;;
75837;SDS011;64480;52.040;113.502;2023-04-06T17:41:21;14.85;;;5.40;;
75837;SDS011;64480;52.040;113.502;2023-04-06T17:44:25;19.33;;;5.35;;
75837;SDS011;64480;52.040;113.502;2023-04-06T17:47:28;24.25;;;7.68;;
75837;SDS011;64480;52.040;113.502;2023-04-06T17:50:38;22.08;;;6.32;;
75837;SDS011;64480;52.040;113.502;2023-04-06T17:53:41;20.70;;;5.70;;
75837;SDS011;64480;52.040;113.502;2023-04-06T17:56:44;19.27;;;5.45;;
75837;SDS011;64480;52.040;113.502;2023-04-06T17:59:50;10.73;;;4.18;;
75837;SDS011;64480;52.040;113.502;2023-04-06T18:02:57;21.85;;;4.72;;
75837;SDS011;64480;52.040;113.502;2023-04-06T18:06:10;26.00;;;5.00;;
75837;SDS011;64480;52.040;113.502;2023-04-06T18:09:16;11.02;;;3.65;;
75837;SDS011;64480;52.040;113.502;2023-04-06T18:12:20;11.35;;;3.65;;
75837;SDS011;64480;52.040;113.502;2023-04-06T18:15:23;13.77;;;3.10;;
75837;SDS011;64480;52.040;113.502;2023-04-06T18:18:27;8.27;;;3.30;;
75837;SDS011;64480;52.040;113.502;2023-04-06T18:21:30;11.95;;;3.05;;
75837;SDS011;64480;52.040;113.502;2023-04-06T18:24:34;8.07;;;2.50;;
75837;SDS011;64480;52.040;113.502;2023-04-06T18:27:43;7.82;;;2.80;;
75837;SDS011;64480;52.040;113.502;2023-04-06T18:30:47;14.02;;;3.58;;
75837;SDS011;64480;52.040;113.502;2023-04-06T18:33:50;12.65;;;2.97;;
75837;SDS011;64480;52.040;113.502;2023-04-06T18:36:55;9.65;;;2.47;;
75837;SDS011;64480;52.040;113.502;2023-04-06T18:39:59;13.43;;;3.38;;
75837;SDS011;64480;52.040;113.502;2023-04-06T18:43:03;11.50;;;3.17;;
75837;SDS011;64480;52.040;113.502;2023-04-06T18:46:11;9.00;;;2.72;;
75837;SDS011;64480;52.040;113.502;2023-04-06T18:49:16;16.70;;;3.38;;
75837;SDS011;64480;52.040;113.502;2023-04-06T18:52:20;8.88;;;2.60;;
75837;SDS011;64480;52.040;113.502;2023-04-06T18:55:23;8.95;;;2.10;;
75837;SDS011;64480;52.040;113.502;2023-04-06T18:58:27;3.85;;;1.50;;
75837;SDS011;64480;52.040;113.502;2023-04-06T19:01:31;7.28;;;1.60;;
75837;SDS011;64480;52.040;113.502;2023-04-06T19:04:35;7.22;;;1.88;;
75837;SDS011;64480;52.040;113.502;2023-04-06T19:07:38;5.45;;;1.40;;
75837;SDS011;64480;52.040;113.502;2023-04-06T19:10:43;3.22;;;1.05;;
75837;SDS011;64480;52.040;113.502;2023-04-06T19:13:47;5.43;;;1.98;;
75837;SDS011;64480;52.040;113.502;2023-04-06T19:16:54;4.90;;;1.42;;
75837;SDS011;64480;52.040;113.502;2023-04-06T19:19:57;3.25;;;1.35;;
75837;SDS011;64480;52.040;113.502;2023-04-06T19:23:00;4.22;;;1.60;;